Terminal Aerodrome Forecast
Issued by NWS

Home | Current Version | Previous Version | Text Only | Print | Product List | Glossary On
Versions: 1 2 3 4 5 6 7 8 9 10 11 12 13 14 15 16 17 18 19 20 21 22 23 24 25 26 27 28
217
FTUS43 KDVN 301032 AAB
TAFBRL
TAF AMD
KBRL 301032Z 3011/3106 34006KT 5SM BR BKN004 OVC040
      TEMPO 3011/3013 4SM TSRA BR SCT004 OVC030CB
     FM301300 VRB03KT 6SM BR VCSH FEW020 BKN150
     FM301600 12005KT P6SM BKN100 PROB30 3021/3024 4SM TSRA
      BKN040CB=

USA.gov is the U.S. government's official web portal to all federal, state and local government web resources and services.